createdAt,value
2023-05-19T00:00:21.455Z,52.34
2023-05-19T00:01:21.618Z,52.44
2023-05-19T00:02:21.830Z,52.44
2023-05-19T00:03:22.072Z,52.44
2023-05-19T00:04:22.121Z,52.44
2023-05-19T00:05:22.309Z,52.44
2023-05-19T00:06:22.495Z,52.44
2023-05-19T00:07:22.678Z,52.44
2023-05-19T00:08:22.830Z,52.44
2023-05-19T00:09:23.004Z,52.44
2023-05-19T00:10:23.183Z,52.44
2023-05-19T00:11:23.369Z,52.54
2023-05-19T00:12:23.540Z,52.54
2023-05-19T00:13:23.696Z,52.54
2023-05-19T00:14:23.904Z,52.54
2023-05-19T00:15:24.065Z,52.64
2023-05-19T00:16:24.314Z,52.54
2023-05-19T00:17:24.372Z,52.54
2023-05-19T00:18:24.558Z,52.64
2023-05-19T00:19:25.110Z,52.64
2023-05-19T00:20:24.931Z,52.64
2023-05-19T00:21:25.099Z,52.64
2023-05-19T00:22:25.275Z,52.64
2023-05-19T00:23:25.471Z,52.74
2023-05-19T00:24:25.644Z,52.76
2023-05-19T00:25:25.798Z,52.76
2023-05-19T00:26:25.973Z,52.76
2023-05-19T00:27:26.151Z,52.87
2023-05-19T00:28:26.347Z,52.87
2023-05-19T00:29:26.491Z,52.87
2023-05-19T00:30:26.666Z,52.87
2023-05-19T00:31:26.843Z,52.87
2023-05-19T00:32:27.023Z,52.97
2023-05-19T00:33:27.210Z,52.97
2023-05-19T00:34:27.350Z,52.97
2023-05-19T00:35:27.522Z,53.07
2023-05-19T00:36:27.725Z,52.97
2023-05-19T00:37:27.903Z,53.07
2023-05-19T00:38:28.100Z,52.97
2023-05-19T00:39:28.250Z,52.97
2023-05-19T00:40:28.430Z,52.97
2023-05-19T00:41:28.600Z,52.97
2023-05-19T00:42:28.783Z,53.07
2023-05-19T00:43:28.965Z,53.07
2023-05-19T00:44:29.114Z,53.07
2023-05-19T00:45:29.292Z,53.07
2023-05-19T00:46:29.485Z,53.07
2023-05-19T00:47:29.809Z,53.20
2023-05-19T00:48:30.474Z,53.17
2023-05-19T00:49:29.996Z,53.20
2023-05-19T00:50:30.557Z,53.20
2023-05-19T00:51:30.350Z,53.20
2023-05-19T00:52:30.535Z,53.30
2023-05-19T00:53:30.727Z,53.30
2023-05-19T00:54:30.880Z,53.30
2023-05-19T00:55:31.054Z,53.30
2023-05-19T00:56:31.259Z,53.40
2023-05-19T00:57:31.411Z,53.40
2023-05-19T00:58:31.575Z,53.40
2023-05-19T00:59:31.756Z,53.50
2023-05-19T01:00:32.161Z,53.50
2023-05-19T01:01:32.244Z,53.50
2023-05-19T01:02:32.325Z,53.50
2023-05-19T01:03:32.541Z,53.50
2023-05-19T01:04:32.626Z,53.50
2023-05-19T01:05:32.802Z,53.50
2023-05-19T01:06:32.969Z,53.63
2023-05-19T01:07:33.116Z,53.63
2023-05-19T01:08:33.307Z,53.63
2023-05-19T01:09:33.516Z,53.72
2023-05-19T01:10:33.864Z,53.72
2023-05-19T01:11:33.826Z,53.83
2023-05-19T01:12:33.968Z,53.83
2023-05-19T01:13:34.164Z,53.72
2023-05-19T01:14:34.337Z,53.83
2023-05-19T01:15:34.515Z,53.83
2023-05-19T01:16:34.790Z,53.83
2023-05-19T01:17:34.924Z,53.93
2023-05-19T01:18:35.034Z,53.93
2023-05-19T01:19:35.217Z,54.03
2023-05-19T01:20:35.389Z,53.93
2023-05-19T01:21:35.583Z,54.03
2023-05-19T01:22:35.745Z,54.03
2023-05-19T01:23:35.910Z,54.03
2023-05-19T01:24:36.106Z,54.03
2023-05-19T01:25:36.293Z,54.05
2023-05-19T01:26:36.488Z,54.16
2023-05-19T01:27:36.644Z,54.05
2023-05-19T01:28:36.803Z,54.16
2023-05-19T01:29:36.974Z,54.16
2023-05-19T01:30:37.158Z,54.16
2023-05-19T01:31:37.380Z,54.25
2023-05-19T01:32:37.529Z,54.25
2023-05-19T01:33:37.696Z,54.25
2023-05-19T01:34:37.874Z,54.25
2023-05-19T01:35:38.075Z,54.25
2023-05-19T01:36:38.269Z,54.25
2023-05-19T01:37:38.410Z,54.36
2023-05-19T01:38:38.597Z,54.36
2023-05-19T01:39:38.748Z,54.36
2023-05-19T01:40:38.923Z,54.46
2023-05-19T01:41:39.128Z,54.49
2023-05-19T01:42:39.281Z,54.46
2023-05-19T01:43:39.428Z,54.49
2023-05-19T01:44:39.594Z,54.58
2023-05-19T01:45:39.818Z,54.69
2023-05-19T01:46:39.930Z,54.58
2023-05-19T01:47:40.126Z,54.58
2023-05-19T01:48:40.305Z,54.58
2023-05-19T01:49:40.475Z,54.58
2023-05-19T01:50:40.684Z,54.58
2023-05-19T01:51:40.827Z,54.69
2023-05-19T01:52:41.023Z,54.69
2023-05-19T01:53:41.168Z,54.69
2023-05-19T01:54:41.349Z,54.79
2023-05-19T01:55:41.521Z,54.69
2023-05-19T01:56:41.743Z,54.69
2023-05-19T01:57:41.849Z,54.79
2023-05-19T01:58:42.042Z,54.89
2023-05-19T01:59:42.196Z,54.99
2023-05-19T02:00:42.372Z,54.99
2023-05-19T02:01:42.683Z,54.89
2023-05-19T02:02:42.753Z,54.99
2023-05-19T02:03:42.916Z,55.09
2023-05-19T02:04:43.121Z,55.09
2023-05-19T02:05:43.262Z,55.09
2023-05-19T02:06:43.433Z,55.11
2023-05-19T02:07:43.576Z,55.19
2023-05-19T02:08:43.748Z,55.22
2023-05-19T02:09:43.951Z,55.32
2023-05-19T02:10:44.133Z,55.19
2023-05-19T02:11:44.274Z,55.22
2023-05-19T02:12:44.464Z,55.32
2023-05-19T02:13:44.632Z,55.32
2023-05-19T02:14:44.809Z,55.32
2023-05-19T02:15:45.018Z,55.42
2023-05-19T02:16:45.161Z,55.42
2023-05-19T02:17:45.378Z,55.52
2023-05-19T02:18:45.771Z,55.42
2023-05-19T02:19:45.648Z,55.62
2023-05-19T02:20:45.850Z,55.52
2023-05-19T02:21:45.997Z,55.52
2023-05-19T02:22:46.192Z,55.52
2023-05-19T02:23:46.383Z,55.52
2023-05-19T02:24:46.628Z,55.62
2023-05-19T02:25:46.693Z,55.62
2023-05-19T02:26:46.865Z,55.62
2023-05-19T02:27:47.053Z,55.62
2023-05-19T02:28:47.205Z,55.62
2023-05-19T02:29:47.392Z,55.73
2023-05-19T02:30:47.574Z,55.62
2023-05-19T02:31:47.808Z,55.62
2023-05-19T02:32:47.969Z,55.73
2023-05-19T02:33:48.090Z,55.73
2023-05-19T02:34:48.276Z,55.73
2023-05-19T02:35:48.463Z,55.82
2023-05-19T02:36:48.657Z,55.73
2023-05-19T02:37:48.797Z,55.73
2023-05-19T02:38:48.982Z,55.73
2023-05-19T02:39:49.158Z,55.73
2023-05-19T02:40:49.327Z,55.73
2023-05-19T02:41:49.476Z,55.82
2023-05-19T02:42:49.643Z,55.85
2023-05-19T02:43:49.834Z,55.85
2023-05-19T02:44:50.051Z,55.82
2023-05-19T02:45:50.178Z,55.95
2023-05-19T02:46:50.512Z,55.85
2023-05-19T02:47:50.595Z,55.85
2023-05-19T02:48:50.684Z,55.95
2023-05-19T02:49:50.903Z,55.95
2023-05-19T02:50:51.063Z,55.95
2023-05-19T02:51:51.207Z,55.95
2023-05-19T02:52:51.380Z,56.05
2023-05-19T02:53:51.564Z,56.05
2023-05-19T02:54:51.738Z,56.05
2023-05-19T02:55:51.923Z,56.15
2023-05-19T02:56:52.073Z,56.26
2023-05-19T02:57:52.247Z,56.26
2023-05-19T02:58:52.435Z,56.15
2023-05-19T02:59:52.648Z,56.26
2023-05-19T03:00:52.770Z,56.26
2023-05-19T03:01:52.991Z,56.26
2023-05-19T03:02:53.214Z,56.26
2023-05-19T03:03:53.390Z,56.36
2023-05-19T03:04:53.488Z,56.26
2023-05-19T03:05:53.640Z,56.28
2023-05-19T03:06:53.810Z,56.38
2023-05-19T03:07:53.981Z,56.48
2023-05-19T03:08:54.159Z,56.48
2023-05-19T03:09:54.350Z,56.48
2023-05-19T03:10:54.503Z,56.48
2023-05-19T03:11:54.683Z,56.48
2023-05-19T03:12:54.854Z,56.59
2023-05-19T03:13:55.034Z,56.48
2023-05-19T03:14:55.206Z,56.59
2023-05-19T03:15:55.403Z,56.59
2023-05-19T03:16:55.639Z,56.59
2023-05-19T03:17:55.828Z,56.59
2023-05-19T03:18:55.909Z,56.59
2023-05-19T03:19:56.046Z,56.59
2023-05-19T03:20:56.247Z,56.59
2023-05-19T03:21:56.433Z,56.59
2023-05-19T03:22:56.580Z,56.69
2023-05-19T03:23:56.749Z,56.69
2023-05-19T03:24:56.946Z,56.69
2023-05-19T03:25:57.096Z,56.79
2023-05-19T03:26:57.270Z,56.79
2023-05-19T03:27:57.433Z,56.89
2023-05-19T03:28:57.593Z,56.79
2023-05-19T03:29:57.776Z,56.69
2023-05-19T03:30:57.935Z,56.79
2023-05-19T03:31:58.094Z,56.79
2023-05-19T03:32:58.342Z,56.89
2023-05-19T03:33:58.430Z,56.99
2023-05-19T03:34:58.602Z,56.89
2023-05-19T03:35:58.777Z,56.89
2023-05-19T03:36:58.946Z,56.89
2023-05-19T03:37:59.126Z,56.99
2023-05-19T03:38:59.284Z,56.99
2023-05-19T03:39:59.480Z,57.09
2023-05-19T03:40:59.646Z,57.09
2023-05-19T03:41:59.819Z,57.29
2023-05-19T03:42:59.991Z,57.20
2023-05-19T03:44:00.179Z,57.09
2023-05-19T03:45:00.340Z,57.09
2023-05-19T03:46:00.546Z,57.20
2023-05-19T03:47:00.678Z,57.20
2023-05-19T03:48:00.892Z,57.20
2023-05-19T03:49:01.035Z,57.20
2023-05-19T03:50:01.243Z,57.20
2023-05-19T03:51:01.396Z,57.20
2023-05-19T03:52:01.571Z,57.20
2023-05-19T03:53:01.759Z,57.09
2023-05-19T03:54:01.923Z,57.20
2023-05-19T03:55:02.106Z,57.20
2023-05-19T03:56:02.277Z,57.20
2023-05-19T03:57:02.455Z,57.20
2023-05-19T03:58:02.622Z,57.09
2023-05-19T03:59:02.787Z,57.20
2023-05-19T04:00:02.976Z,57.20
2023-05-19T04:01:03.147Z,57.29
2023-05-19T04:02:03.351Z,57.20
2023-05-19T04:03:03.568Z,57.29
2023-05-19T04:04:03.713Z,57.20
2023-05-19T04:05:03.819Z,57.20
2023-05-19T04:06:03.995Z,57.29
2023-05-19T04:07:04.154Z,57.40
2023-05-19T04:08:04.422Z,57.20
2023-05-19T04:09:04.496Z,57.20
2023-05-19T04:10:04.714Z,57.09
2023-05-19T04:11:04.824Z,57.29
2023-05-19T04:12:05.033Z,57.09
2023-05-19T04:13:05.170Z,57.20
2023-05-19T04:14:05.409Z,57.09
2023-05-19T04:15:05.530Z,57.09
2023-05-19T04:16:05.766Z,57.20
2023-05-19T04:17:05.893Z,57.09
2023-05-19T04:18:06.091Z,57.20
2023-05-19T04:19:06.393Z,57.20
2023-05-19T04:20:06.466Z,57.17
2023-05-19T04:21:06.636Z,57.17
2023-05-19T04:22:06.824Z,57.09
2023-05-19T04:23:06.969Z,57.09
2023-05-19T04:24:07.179Z,57.07
2023-05-19T04:25:07.327Z,57.20
2023-05-19T04:26:07.521Z,57.27
2023-05-19T04:27:07.671Z,57.17
2023-05-19T04:28:07.865Z,57.17
2023-05-19T04:29:08.005Z,57.17
2023-05-19T04:30:08.209Z,57.07
2023-05-19T04:31:08.390Z,57.27
2023-05-19T04:32:08.564Z,57.27
2023-05-19T04:33:08.727Z,57.07
2023-05-19T04:34:08.898Z,57.17
2023-05-19T04:35:09.090Z,57.07
2023-05-19T04:36:09.268Z,57.07
2023-05-19T04:37:09.469Z,57.07
2023-05-19T04:38:09.614Z,56.96
2023-05-19T04:39:09.812Z,57.07
2023-05-19T04:40:09.987Z,56.96
2023-05-19T04:41:10.154Z,56.86
2023-05-19T04:42:10.365Z,56.96
2023-05-19T04:43:10.507Z,56.84
2023-05-19T04:44:10.661Z,56.96
2023-05-19T04:45:10.853Z,56.94
2023-05-19T04:46:13.384Z,56.84
2023-05-19T04:47:11.427Z,56.84
2023-05-19T04:48:11.371Z,56.84
2023-05-19T04:49:11.534Z,56.94
2023-05-19T04:50:11.698Z,56.73
2023-05-19T04:51:11.870Z,56.84
2023-05-19T04:52:12.080Z,56.84
2023-05-19T04:53:12.234Z,56.84
2023-05-19T04:54:12.424Z,56.84
2023-05-19T04:55:12.586Z,56.84
2023-05-19T04:56:12.768Z,56.84
2023-05-19T04:57:12.930Z,56.84
2023-05-19T04:58:13.084Z,56.73
2023-05-19T04:59:13.247Z,56.73
2023-05-19T05:00:13.457Z,56.71
2023-05-19T05:01:13.604Z,56.71
2023-05-19T05:02:13.980Z,56.71
2023-05-19T05:03:14.007Z,56.61
2023-05-19T05:04:14.149Z,56.51
2023-05-19T05:05:14.308Z,56.51
2023-05-19T05:06:14.473Z,56.61
2023-05-19T05:07:14.665Z,56.51
2023-05-19T05:08:14.798Z,56.51
2023-05-19T05:09:14.968Z,56.51
2023-05-19T05:10:15.177Z,56.61
2023-05-19T05:11:15.320Z,56.58
2023-05-19T05:12:15.461Z,56.38
2023-05-19T05:13:15.630Z,56.38
2023-05-19T05:14:15.807Z,56.27
2023-05-19T05:15:15.976Z,56.27
2023-05-19T05:16:16.181Z,56.38
2023-05-19T05:17:16.305Z,56.07
2023-05-19T05:18:16.469Z,56.07
2023-05-19T05:19:16.693Z,55.87
2023-05-19T05:20:16.815Z,55.77
2023-05-19T05:21:16.966Z,55.85
2023-05-19T05:22:17.131Z,55.94
2023-05-19T05:23:17.291Z,55.94
2023-05-19T05:24:17.467Z,55.74
2023-05-19T05:25:17.615Z,55.94
2023-05-19T05:26:17.779Z,55.94
2023-05-19T05:27:17.953Z,55.94
2023-05-19T05:28:18.117Z,55.74
2023-05-19T05:29:18.284Z,55.85
2023-05-19T05:30:18.458Z,55.85
2023-05-19T05:31:18.600Z,55.74
2023-05-19T05:32:18.800Z,55.52
2023-05-19T05:33:19.044Z,55.52
2023-05-19T05:34:19.116Z,55.72
2023-05-19T05:35:19.262Z,55.32
2023-05-19T05:36:19.439Z,55.52
2023-05-19T05:37:19.592Z,55.52
2023-05-19T05:38:19.780Z,55.52
2023-05-19T05:39:19.933Z,55.21
2023-05-19T05:40:20.099Z,55.21
2023-05-19T05:41:20.262Z,55.09
2023-05-19T05:42:20.424Z,55.19
2023-05-19T05:43:20.596Z,55.29
2023-05-19T05:44:20.781Z,55.09
2023-05-19T05:45:20.912Z,55.09
2023-05-19T05:46:21.255Z,55.09
2023-05-19T05:47:21.273Z,55.29
2023-05-19T05:48:21.475Z,54.99
2023-05-19T05:49:21.645Z,54.79
2023-05-19T05:50:21.806Z,54.76
2023-05-19T05:51:21.957Z,54.96
2023-05-19T05:52:22.146Z,54.76
2023-05-19T05:53:22.312Z,54.96
2023-05-19T05:54:22.498Z,54.56
2023-05-19T05:55:22.641Z,54.66
2023-05-19T05:56:22.801Z,55.06
2023-05-19T05:57:22.984Z,55.34
2023-05-19T05:58:23.146Z,55.34
2023-05-19T05:59:23.309Z,55.34
2023-05-19T06:00:23.507Z,55.34
2023-05-19T06:01:23.666Z,55.34
2023-05-19T06:02:23.895Z,55.31
2023-05-19T06:03:24.092Z,55.21
2023-05-19T06:04:24.206Z,54.91
2023-05-19T06:05:24.466Z,54.58
2023-05-19T06:06:24.599Z,54.58
2023-05-19T06:07:24.734Z,54.28
2023-05-19T06:08:24.893Z,54.25
2023-05-19T06:09:25.083Z,54.35
2023-05-19T06:10:25.216Z,53.95
2023-05-19T06:11:25.383Z,54.05
2023-05-19T06:12:25.566Z,54.03
2023-05-19T06:13:25.769Z,53.92
2023-05-19T06:14:25.948Z,53.63
2023-05-19T06:15:26.131Z,53.83
2023-05-19T06:16:26.337Z,54.10
2023-05-19T06:17:26.543Z,53.60
2023-05-19T06:18:26.702Z,53.90
2023-05-19T06:19:26.959Z,53.60
2023-05-19T06:20:27.014Z,53.17
2023-05-19T06:21:27.212Z,53.47
2023-05-19T06:22:27.374Z,53.17
2023-05-19T06:23:27.549Z,52.84
2023-05-19T06:24:27.715Z,52.74
2023-05-19T06:25:27.875Z,52.94
2023-05-19T06:26:30.901Z,52.84
2023-05-19T06:27:28.224Z,52.51
2023-05-19T06:28:28.384Z,52.32
2023-05-19T06:29:28.552Z,52.32
2023-05-19T06:30:28.765Z,52.12
2023-05-19T06:31:28.914Z,51.72
2023-05-19T06:32:29.119Z,51.59
2023-05-19T06:33:29.454Z,51.69
2023-05-19T06:34:29.431Z,51.69
2023-05-19T06:35:29.589Z,51.89
2023-05-19T06:36:29.762Z,51.87
2023-05-19T06:37:29.912Z,51.67
2023-05-19T06:38:30.101Z,51.67
2023-05-19T06:39:30.271Z,51.56
2023-05-19T06:40:30.647Z,51.17
2023-05-19T06:41:30.616Z,51.26
2023-05-19T06:42:30.776Z,51.44
2023-05-19T06:43:30.946Z,51.54
2023-05-19T06:44:31.128Z,51.04
2023-05-19T06:45:31.298Z,50.92
2023-05-19T06:46:31.475Z,50.62
2023-05-19T06:47:31.656Z,50.51
2023-05-19T06:48:31.797Z,50.51
2023-05-19T06:49:31.996Z,50.71
2023-05-19T06:50:32.431Z,50.59
2023-05-19T06:51:32.364Z,50.19
2023-05-19T06:52:32.522Z,49.89
2023-05-19T06:53:32.670Z,49.69
2023-05-19T06:54:32.873Z,49.96
2023-05-19T06:55:34.392Z,49.76
2023-05-19T06:56:33.232Z,49.46
2023-05-19T06:57:33.375Z,49.16
2023-05-19T06:58:33.551Z,49.37
2023-05-19T06:59:33.700Z,49.34
2023-05-19T07:00:34.149Z,49.14
2023-05-19T07:01:34.116Z,49.34
2023-05-19T07:02:34.318Z,49.34
2023-05-19T07:03:34.528Z,49.24
2023-05-19T07:04:34.617Z,49.14
2023-05-19T07:05:34.793Z,49.22
2023-05-19T07:06:34.941Z,48.82
2023-05-19T07:07:35.103Z,48.52
2023-05-19T07:08:35.281Z,48.52
2023-05-19T07:09:35.428Z,48.42
2023-05-19T07:10:35.690Z,48.42
2023-05-19T07:11:35.752Z,48.29
2023-05-19T07:12:35.904Z,48.39
2023-05-19T07:13:36.063Z,48.29
2023-05-19T07:14:36.228Z,48.19
2023-05-19T07:15:36.416Z,48.19
2023-05-19T07:16:36.635Z,48.39
2023-05-19T07:17:36.810Z,48.19
2023-05-19T07:18:36.958Z,48.07
2023-05-19T07:19:37.085Z,48.27
2023-05-19T07:20:37.265Z,48.27
2023-05-19T07:21:37.445Z,48.17
2023-05-19T07:22:37.598Z,48.37
2023-05-19T07:23:37.761Z,48.47
2023-05-19T07:24:37.973Z,48.14
2023-05-19T07:25:38.142Z,47.85
2023-05-19T07:26:38.305Z,47.85
2023-05-19T07:27:38.485Z,47.75
2023-05-19T07:28:40.781Z,47.55
2023-05-19T07:29:38.801Z,47.45
2023-05-19T07:30:39.026Z,47.42
2023-05-19T07:31:39.173Z,47.22
2023-05-19T07:32:39.351Z,47.13
2023-05-19T07:33:39.519Z,47.03
2023-05-19T07:34:39.676Z,46.73
2023-05-19T07:35:39.862Z,46.91
2023-05-19T07:36:40.033Z,47.00
2023-05-19T07:37:40.181Z,46.70
2023-05-19T07:38:40.379Z,46.50
2023-05-19T07:39:40.547Z,46.61
2023-05-19T07:40:40.708Z,46.31
2023-05-19T07:41:40.882Z,46.61
2023-05-19T07:42:41.057Z,46.78
2023-05-19T07:43:41.283Z,46.68
2023-05-19T07:44:41.440Z,46.98
2023-05-19T07:45:41.603Z,47.08
2023-05-19T07:46:41.773Z,47.58
2023-05-19T07:47:41.925Z,46.48
2023-05-19T07:48:42.131Z,46.48
2023-05-19T07:49:42.285Z,46.28
2023-05-19T07:50:42.450Z,46.36
2023-05-19T07:51:42.604Z,46.36
2023-05-19T07:52:42.781Z,45.96
2023-05-19T07:53:42.963Z,46.36
2023-05-19T07:54:43.100Z,46.46
2023-05-19T07:55:43.285Z,46.96
2023-05-19T07:56:43.434Z,47.53
2023-05-19T07:57:43.633Z,47.44
2023-05-19T07:58:43.754Z,47.24
2023-05-19T07:59:43.962Z,48.23
2023-05-19T08:00:44.098Z,48.23
2023-05-19T08:01:44.261Z,48.63
2023-05-19T08:02:44.517Z,48.03
2023-05-19T08:03:44.659Z,48.11
2023-05-19T08:04:44.856Z,47.61
2023-05-19T08:05:44.969Z,48.11
2023-05-19T08:06:45.176Z,47.31
2023-05-19T08:07:45.301Z,47.61
2023-05-19T08:08:45.483Z,48.01
2023-05-19T08:09:45.673Z,46.49
2023-05-19T08:10:45.836Z,45.60
2023-05-19T08:11:46.052Z,45.79
2023-05-19T08:12:46.204Z,47.39
2023-05-19T08:13:46.367Z,45.78
2023-05-19T08:14:46.564Z,46.87
2023-05-19T08:15:46.793Z,46.37
2023-05-19T08:16:46.913Z,46.87
2023-05-19T08:17:47.155Z,45.97
2023-05-19T08:18:47.259Z,45.85
2023-05-19T08:19:47.419Z,47.64
2023-05-19T08:20:47.650Z,46.25
2023-05-19T08:21:47.814Z,46.35
2023-05-19T08:22:47.970Z,46.05
2023-05-19T08:23:48.112Z,45.43
2023-05-19T08:24:48.290Z,46.13
2023-05-19T08:25:48.486Z,45.73
2023-05-19T08:26:48.701Z,45.53
2023-05-19T08:27:48.843Z,45.23
2023-05-19T08:28:49.018Z,44.62
2023-05-19T08:29:49.217Z,45.31
2023-05-19T08:30:49.380Z,46.80
2023-05-19T08:31:49.644Z,47.10
2023-05-19T08:32:49.793Z,46.41
2023-05-19T08:33:49.909Z,47.40
2023-05-19T08:34:50.056Z,46.88
2023-05-19T08:35:50.249Z,46.88
2023-05-19T08:36:50.439Z,44.99
2023-05-19T08:37:50.580Z,45.09
2023-05-19T08:38:50.743Z,43.78
2023-05-19T08:39:50.936Z,44.27
2023-05-19T08:40:51.124Z,44.48
2023-05-19T08:41:51.274Z,44.07
2023-05-19T08:42:51.437Z,45.37
2023-05-19T08:43:51.600Z,45.67
2023-05-19T08:44:51.786Z,44.57
2023-05-19T08:45:51.942Z,44.75
2023-05-19T08:46:52.180Z,44.45
2023-05-19T08:47:52.350Z,43.46
2023-05-19T08:48:52.502Z,43.36
2023-05-19T08:49:52.743Z,44.65
2023-05-19T08:50:52.885Z,43.56
2023-05-19T08:51:53.047Z,43.34
2023-05-19T08:52:53.528Z,43.93
2023-05-19T08:53:53.387Z,44.04
2023-05-19T08:54:53.552Z,42.65
2023-05-19T08:55:53.746Z,42.35
2023-05-19T08:56:53.907Z,42.55
2023-05-19T08:57:54.105Z,42.52
2023-05-19T08:58:54.273Z,42.43
2023-05-19T08:59:54.502Z,41.53
2023-05-19T09:00:54.632Z,41.83
2023-05-19T09:01:54.807Z,43.10
2023-05-19T09:03:00.967Z,42.90
2023-05-19T09:03:56.265Z,43.20
2023-05-19T09:04:55.370Z,42.31
2023-05-19T09:05:55.537Z,42.60
2023-05-19T09:06:55.641Z,43.00
2023-05-19T09:07:55.810Z,42.19
2023-05-19T09:08:55.985Z,42.49
2023-05-19T09:09:56.179Z,41.79
2023-05-19T09:10:56.320Z,41.30
2023-05-19T09:11:56.520Z,42.58
2023-05-19T09:12:56.689Z,42.09
2023-05-19T09:13:56.875Z,41.10
2023-05-19T09:14:57.052Z,41.10
2023-05-19T09:15:57.223Z,40.90
2023-05-19T09:16:57.416Z,42.38
2023-05-19T09:17:57.629Z,42.58
2023-05-19T09:18:57.766Z,41.99
2023-05-19T09:19:57.925Z,41.38
2023-05-19T09:20:58.098Z,41.38
2023-05-19T09:21:58.279Z,40.98
2023-05-19T09:22:58.413Z,40.88
2023-05-19T09:23:58.595Z,40.58
2023-05-19T09:24:58.753Z,40.29
2023-05-19T09:25:58.925Z,40.47
2023-05-19T09:27:00.335Z,40.37
2023-05-19T09:27:59.281Z,40.37
2023-05-19T09:28:59.428Z,40.37
2023-05-19T09:29:59.608Z,41.06
2023-05-19T09:30:59.797Z,40.37
2023-05-19T09:32:00.026Z,41.06
2023-05-19T09:33:00.168Z,41.55
2023-05-19T09:34:00.304Z,40.66
2023-05-19T09:35:00.503Z,40.07
2023-05-19T09:36:00.637Z,39.97
2023-05-19T09:37:00.792Z,40.26
2023-05-19T09:38:00.983Z,40.26
2023-05-19T09:39:01.134Z,40.66
2023-05-19T09:40:01.314Z,40.66
2023-05-19T09:41:01.442Z,41.46
2023-05-19T09:42:01.629Z,41.25
2023-05-19T09:43:01.829Z,41.36
2023-05-19T09:44:02.007Z,39.85
2023-05-19T09:45:02.166Z,39.75
2023-05-19T09:46:02.373Z,39.46
2023-05-19T09:47:02.531Z,39.56
2023-05-19T09:48:02.768Z,39.54
2023-05-19T09:49:02.875Z,39.34
2023-05-19T09:50:03.065Z,39.24
2023-05-19T09:51:03.246Z,39.14
2023-05-19T09:52:03.468Z,38.94
2023-05-19T09:53:03.608Z,39.24
2023-05-19T09:54:03.794Z,38.84
2023-05-19T09:55:03.985Z,38.94
2023-05-19T09:56:04.156Z,38.73
2023-05-19T09:57:04.829Z,38.63
2023-05-19T09:58:04.514Z,38.23
2023-05-19T09:59:04.670Z,38.21
2023-05-19T10:00:04.869Z,38.12
2023-05-19T10:01:05.234Z,37.82
2023-05-19T10:02:05.185Z,38.12
2023-05-19T10:03:05.436Z,38.21
2023-05-19T10:04:06.088Z,38.02
2023-05-19T10:05:05.763Z,37.72
2023-05-19T10:06:05.895Z,37.70
2023-05-19T10:07:06.071Z,37.60
2023-05-19T10:08:06.232Z,37.70
2023-05-19T10:09:06.392Z,38.39
2023-05-19T10:10:06.598Z,38.20
2023-05-19T10:11:06.749Z,38.10
2023-05-19T10:12:06.943Z,38.29
2023-05-19T10:13:07.176Z,38.00
2023-05-19T10:14:07.286Z,37.90
2023-05-19T10:15:07.452Z,37.80
2023-05-19T10:16:07.722Z,38.29
2023-05-19T10:17:07.846Z,38.29
2023-05-19T10:18:07.943Z,38.39
2023-05-19T10:19:08.197Z,38.20
2023-05-19T10:20:08.320Z,38.00
2023-05-19T10:21:08.494Z,37.41
2023-05-19T10:22:08.636Z,37.39
2023-05-19T10:23:08.819Z,37.29
2023-05-19T10:24:10.493Z,37.29
2023-05-19T10:25:09.155Z,37.29
2023-05-19T10:26:09.336Z,36.99
2023-05-19T10:27:09.504Z,36.90
2023-05-19T10:28:09.675Z,36.99
2023-05-19T10:29:09.836Z,37.78
2023-05-19T10:30:12.129Z,37.19
2023-05-19T10:31:10.181Z,37.09
2023-05-19T10:32:10.407Z,37.78
2023-05-19T10:33:10.625Z,36.99
2023-05-19T10:34:10.679Z,37.09
2023-05-19T10:35:10.854Z,36.99
2023-05-19T10:36:11.056Z,37.29
2023-05-19T10:37:11.165Z,37.29
2023-05-19T10:38:11.363Z,36.90
2023-05-19T10:39:11.515Z,36.78
2023-05-19T10:40:11.709Z,36.88
2023-05-19T10:41:11.906Z,36.98
2023-05-19T10:42:12.074Z,36.78
2023-05-19T10:43:12.214Z,36.78
2023-05-19T10:44:12.451Z,36.78
2023-05-19T10:45:12.569Z,36.88
2023-05-19T10:46:12.757Z,36.88
2023-05-19T10:47:12.963Z,36.98
2023-05-19T10:48:13.117Z,36.90
2023-05-19T10:49:13.308Z,36.99
2023-05-19T10:50:13.416Z,37.19
2023-05-19T10:51:14.574Z,36.99
2023-05-19T10:52:13.779Z,36.99
2023-05-19T10:53:13.961Z,37.39
2023-05-19T10:54:14.478Z,37.29
2023-05-19T10:55:14.290Z,37.29
2023-05-19T10:56:14.454Z,36.99
2023-05-19T10:57:14.675Z,36.99
2023-05-19T10:58:14.805Z,37.09
2023-05-19T10:59:14.954Z,37.09
2023-05-19T11:00:15.201Z,36.99
2023-05-19T11:01:15.367Z,36.80
2023-05-19T11:02:15.687Z,36.80
2023-05-19T11:03:15.709Z,36.99
2023-05-19T11:04:15.943Z,36.99
2023-05-19T11:05:15.994Z,36.99
2023-05-19T11:06:16.164Z,36.99
2023-05-19T11:07:16.317Z,36.90
2023-05-19T11:08:16.539Z,37.19
2023-05-19T11:09:16.713Z,36.99
2023-05-19T11:10:16.847Z,37.09
2023-05-19T11:11:17.038Z,37.19
2023-05-19T11:12:17.202Z,36.99
2023-05-19T11:13:17.382Z,36.99
2023-05-19T11:14:17.530Z,36.80
2023-05-19T11:15:17.744Z,36.90
2023-05-19T11:16:17.969Z,36.88
2023-05-19T11:17:18.061Z,36.78
2023-05-19T11:18:18.242Z,36.78
2023-05-19T11:19:18.431Z,36.88
2023-05-19T11:20:18.533Z,36.78
2023-05-19T11:21:18.799Z,36.68
2023-05-19T11:22:18.940Z,36.46
2023-05-19T11:23:19.104Z,36.36
2023-05-19T11:24:19.247Z,36.27
2023-05-19T11:25:19.427Z,36.36
2023-05-19T11:26:19.574Z,36.27
2023-05-19T11:27:19.744Z,36.36
2023-05-19T11:28:20.180Z,36.36
2023-05-19T11:29:20.091Z,36.36
2023-05-19T11:30:20.362Z,36.27
2023-05-19T11:31:20.553Z,36.27
2023-05-19T11:32:20.648Z,36.17
2023-05-19T11:33:20.984Z,36.27
2023-05-19T11:34:20.922Z,36.27
2023-05-19T11:35:21.102Z,36.27
2023-05-19T11:36:21.255Z,36.36
2023-05-19T11:37:21.471Z,36.27
2023-05-19T11:38:21.581Z,36.36
2023-05-19T11:39:21.757Z,36.27
2023-05-19T11:40:21.936Z,36.17
2023-05-19T11:41:22.093Z,36.27
2023-05-19T11:42:22.285Z,36.17
2023-05-19T11:43:22.480Z,36.15
2023-05-19T11:44:22.669Z,36.07
2023-05-19T11:45:22.845Z,36.15
2023-05-19T11:46:23.070Z,36.15
2023-05-19T11:47:23.268Z,36.05
2023-05-19T11:48:23.404Z,36.05
2023-05-19T11:49:23.533Z,36.15
2023-05-19T11:50:23.690Z,36.15
2023-05-19T11:51:23.897Z,36.05
2023-05-19T11:52:24.098Z,36.05
2023-05-19T11:53:24.224Z,35.96
2023-05-19T11:54:24.385Z,35.96
2023-05-19T11:55:24.569Z,36.05
2023-05-19T11:56:24.730Z,36.05
2023-05-19T11:57:24.896Z,35.86
2023-05-19T11:58:25.032Z,35.86
2023-05-19T11:59:25.220Z,35.96
2023-05-19T12:00:25.359Z,35.86
2023-05-19T12:01:25.559Z,35.86
2023-05-19T12:02:25.816Z,35.96
2023-05-19T12:03:25.983Z,35.86
2023-05-19T12:04:26.095Z,35.86
2023-05-19T12:05:26.428Z,35.96
2023-05-19T12:06:26.528Z,35.86
2023-05-19T12:07:26.624Z,35.86
2023-05-19T12:08:26.815Z,35.86
2023-05-19T12:09:26.960Z,35.86
2023-05-19T12:10:27.130Z,35.96
2023-05-19T12:11:27.321Z,35.86
2023-05-19T12:12:27.471Z,35.86
2023-05-19T12:13:27.626Z,35.96
2023-05-19T12:14:27.773Z,35.96
2023-05-19T12:15:27.959Z,35.96
2023-05-19T12:16:28.193Z,35.96
2023-05-19T12:17:28.307Z,35.96
2023-05-19T12:18:28.443Z,36.15
2023-05-19T12:19:28.679Z,35.86
2023-05-19T12:20:28.817Z,35.96
2023-05-19T12:21:33.956Z,35.86
2023-05-19T12:22:30.125Z,35.84
2023-05-19T12:23:29.310Z,35.74
2023-05-19T12:24:29.477Z,35.94
2023-05-19T12:25:29.653Z,35.84
2023-05-19T12:26:29.849Z,35.96
2023-05-19T12:27:29.990Z,36.15
2023-05-19T12:28:30.140Z,36.35
2023-05-19T12:29:30.333Z,36.05
2023-05-19T12:30:30.541Z,36.15
2023-05-19T12:31:30.682Z,36.05
2023-05-19T12:32:30.823Z,35.84
2023-05-19T12:33:31.715Z,35.84
2023-05-19T12:34:31.198Z,35.84
2023-05-19T12:35:31.303Z,35.64
2023-05-19T12:36:31.533Z,35.64
2023-05-19T12:37:31.675Z,35.74
2023-05-19T12:38:31.838Z,35.64
2023-05-19T12:39:32.044Z,35.64
2023-05-19T12:40:33.046Z,35.54
2023-05-19T12:41:32.397Z,35.44
2023-05-19T12:42:32.546Z,35.44
2023-05-19T12:43:32.757Z,35.44
2023-05-19T12:44:32.865Z,35.25
2023-05-19T12:45:33.081Z,35.15
2023-05-19T12:46:33.245Z,35.05
2023-05-19T12:47:33.401Z,35.05
2023-05-19T12:48:33.573Z,35.05
2023-05-19T12:49:33.742Z,34.95
2023-05-19T12:50:34.224Z,34.95
2023-05-19T12:51:34.094Z,34.95
2023-05-19T12:52:34.268Z,34.74
2023-05-19T12:53:34.428Z,34.44
2023-05-19T12:54:34.604Z,34.43